sensor_id;sensor_type;location;lat;lon;timestamp;temperature;humidity
9768;DHT22;4923;52.520;13.494;2023-03-01T00:00:16;-0.70;1.00
9768;DHT22;4923;52.520;13.494;2023-03-01T00:03:04;-0.70;1.00
9768;DHT22;4923;52.520;13.494;2023-03-01T00:05:51;-0.90;1.00
9768;DHT22;4923;52.520;13.494;2023-03-01T00:08:38;-0.90;1.00
9768;DHT22;4923;52.520;13.494;2023-03-01T00:11:27;-0.90;1.00
9768;DHT22;4923;52.520;13.494;2023-03-01T00:14:14;-0.90;1.00
9768;DHT22;4923;52.520;13.494;2023-03-01T00:17:01;-0.90;1.00
9768;DHT22;4923;52.520;13.494;2023-03-01T00:19:50;-0.90;1.00
9768;DHT22;4923;52.520;13.494;2023-03-01T00:22:36;-0.90;1.00
9768;DHT22;4923;52.520;13.494;2023-03-01T00:25:23;-0.90;1.00
9768;DHT22;4923;52.520;13.494;2023-03-01T00:28:10;-0.90;1.00
9768;DHT22;4923;52.520;13.494;2023-03-01T00:31:03;-0.80;1.00
9768;DHT22;4923;52.520;13.494;2023-03-01T00:33:52;-0.90;1.00
9768;DHT22;4923;52.520;13.494;2023-03-01T00:36:43;-1.00;1.00
9768;DHT22;4923;52.520;13.494;2023-03-01T00:39:31;-1.00;1.00
9768;DHT22;4923;52.520;13.494;2023-03-01T00:42:18;-1.10;1.00
9768;DHT22;4923;52.520;13.494;2023-03-01T00:45:06;-1.10;1.00
9768;DHT22;4923;52.520;13.494;2023-03-01T00:47:54;-1.20;1.00
9768;DHT22;4923;52.520;13.494;2023-03-01T00:50:41;-1.10;1.00
9768;DHT22;4923;52.520;13.494;2023-03-01T00:53:29;-1.20;1.00
9768;DHT22;4923;52.520;13.494;2023-03-01T00:56:16;-1.20;1.00
9768;DHT22;4923;52.520;13.494;2023-03-01T00:59:03;-1.20;1.00
9768;DHT22;4923;52.520;13.494;2023-03-01T01:01:49;-1.20;1.00
9768;DHT22;4923;52.520;13.494;2023-03-01T01:04:36;-1.10;1.00
9768;DHT22;4923;52.520;13.494;2023-03-01T01:07:23;-1.10;1.00
9768;DHT22;4923;52.520;13.494;2023-03-01T01:10:12;-1.10;1.00
9768;DHT22;4923;52.520;13.494;2023-03-01T01:13:03;-1.10;1.00
9768;DHT22;4923;52.520;13.494;2023-03-01T01:15:50;-1.20;1.00
9768;DHT22;4923;52.520;13.494;2023-03-01T01:18:36;-1.20;1.00
9768;DHT22;4923;52.520;13.494;2023-03-01T01:21:24;-1.10;1.00
9768;DHT22;4923;52.520;13.494;2023-03-01T01:24:12;-1.10;1.00
9768;DHT22;4923;52.520;13.494;2023-03-01T01:27:00;-1.10;1.00
9768;DHT22;4923;52.520;13.494;2023-03-01T01:29:47;-1.00;1.00
9768;DHT22;4923;52.520;13.494;2023-03-01T01:32:34;-1.00;1.00
9768;DHT22;4923;52.520;13.494;2023-03-01T01:35:21;-1.10;1.00
9768;DHT22;4923;52.520;13.494;2023-03-01T01:38:08;-1.10;1.00
9768;DHT22;4923;52.520;13.494;2023-03-01T01:40:55;-1.10;1.00
9768;DHT22;4923;52.520;13.494;2023-03-01T01:43:46;-1.00;1.00
9768;DHT22;4923;52.520;13.494;2023-03-01T01:46:36;-1.00;1.00
9768;DHT22;4923;52.520;13.494;2023-03-01T01:49:29;-1.00;1.00
9768;DHT22;4923;52.520;13.494;2023-03-01T01:52:21;-1.10;1.00
9768;DHT22;4923;52.520;13.494;2023-03-01T01:55:12;-1.20;1.00
9768;DHT22;4923;52.520;13.494;2023-03-01T01:58:05;-1.20;1.00
9768;DHT22;4923;52.520;13.494;2023-03-01T02:00:54;-1.20;1.00
9768;DHT22;4923;52.520;13.494;2023-03-01T02:03:43;-1.30;1.00
9768;DHT22;4923;52.520;13.494;2023-03-01T02:06:33;-1.30;1.00
9768;DHT22;4923;52.520;13.494;2023-03-01T02:09:23;-1.30;1.00
9768;DHT22;4923;52.520;13.494;2023-03-01T02:12:10;-1.40;1.00
9768;DHT22;4923;52.520;13.494;2023-03-01T02:14:57;-1.50;1.00
9768;DHT22;4923;52.520;13.494;2023-03-01T02:17:45;-1.60;1.00
9768;DHT22;4923;52.520;13.494;2023-03-01T02:20:39;-1.70;1.00
9768;DHT22;4923;52.520;13.494;2023-03-01T02:23:27;-1.70;1.00
9768;DHT22;4923;52.520;13.494;2023-03-01T02:26:20;-1.90;1.00
9768;DHT22;4923;52.520;13.494;2023-03-01T02:29:12;-2.00;1.00
9768;DHT22;4923;52.520;13.494;2023-03-01T02:32:00;-1.90;1.00
9768;DHT22;4923;52.520;13.494;2023-03-01T02:34:49;-1.90;1.00
9768;DHT22;4923;52.520;13.494;2023-03-01T02:37:36;-1.90;1.00
9768;DHT22;4923;52.520;13.494;2023-03-01T02:40:23;-2.00;1.00
9768;DHT22;4923;52.520;13.494;2023-03-01T02:43:12;-2.00;1.00
9768;DHT22;4923;52.520;13.494;2023-03-01T02:46:03;-2.10;1.00
9768;DHT22;4923;52.520;13.494;2023-03-01T02:48:52;-2.10;1.00
9768;DHT22;4923;52.520;13.494;2023-03-01T02:51:47;-2.20;1.00
9768;DHT22;4923;52.520;13.494;2023-03-01T02:54:40;-2.20;1.00
9768;DHT22;4923;52.520;13.494;2023-03-01T02:57:28;-2.20;1.00
9768;DHT22;4923;52.520;13.494;2023-03-01T03:00:18;-2.30;1.00
9768;DHT22;4923;52.520;13.494;2023-03-01T03:03:07;-2.40;1.00
9768;DHT22;4923;52.520;13.494;2023-03-01T03:05:54;-2.40;1.00
9768;DHT22;4923;52.520;13.494;2023-03-01T03:08:41;-2.40;1.00
9768;DHT22;4923;52.520;13.494;2023-03-01T03:11:29;-2.40;1.00
9768;DHT22;4923;52.520;13.494;2023-03-01T03:14:18;-2.40;1.00
9768;DHT22;4923;52.520;13.494;2023-03-01T03:17:04;-2.40;1.00
9768;DHT22;4923;52.520;13.494;2023-03-01T03:19:53;-2.50;1.00
9768;DHT22;4923;52.520;13.494;2023-03-01T03:22:40;-2.50;1.00
9768;DHT22;4923;52.520;13.494;2023-03-01T03:25:28;-2.40;1.00
9768;DHT22;4923;52.520;13.494;2023-03-01T03:28:16;-2.40;1.00
9768;DHT22;4923;52.520;13.494;2023-03-01T03:31:05;-2.40;1.00
9768;DHT22;4923;52.520;13.494;2023-03-01T03:33:52;-2.40;1.00
9768;DHT22;4923;52.520;13.494;2023-03-01T03:36:41;-2.40;1.00
9768;DHT22;4923;52.520;13.494;2023-03-01T03:39:28;-2.50;1.00
9768;DHT22;4923;52.520;13.494;2023-03-01T03:42:20;-2.60;1.00
9768;DHT22;4923;52.520;13.494;2023-03-01T03:45:08;-2.60;1.00
9768;DHT22;4923;52.520;13.494;2023-03-01T03:47:55;-2.60;1.00
9768;DHT22;4923;52.520;13.494;2023-03-01T03:50:46;-2.60;1.00
9768;DHT22;4923;52.520;13.494;2023-03-01T03:53:34;-2.60;1.00
9768;DHT22;4923;52.520;13.494;2023-03-01T03:56:21;-2.50;1.00
9768;DHT22;4923;52.520;13.494;2023-03-01T03:59:11;-2.50;1.00
9768;DHT22;4923;52.520;13.494;2023-03-01T04:01:58;-2.50;1.00
9768;DHT22;4923;52.520;13.494;2023-03-01T04:04:45;-2.50;1.00
9768;DHT22;4923;52.520;13.494;2023-03-01T04:07:32;-2.50;1.00
9768;DHT22;4923;52.520;13.494;2023-03-01T04:10:20;-2.60;1.00
9768;DHT22;4923;52.520;13.494;2023-03-01T04:13:10;-2.60;1.00
9768;DHT22;4923;52.520;13.494;2023-03-01T04:15:57;-2.70;1.00
9768;DHT22;4923;52.520;13.494;2023-03-01T04:18:44;-2.70;1.00
9768;DHT22;4923;52.520;13.494;2023-03-01T04:21:31;-2.80;1.00
9768;DHT22;4923;52.520;13.494;2023-03-01T04:24:18;-2.80;1.00
9768;DHT22;4923;52.520;13.494;2023-03-01T04:27:06;-2.80;1.00
9768;DHT22;4923;52.520;13.494;2023-03-01T04:29:53;-2.80;1.00
9768;DHT22;4923;52.520;13.494;2023-03-01T04:32:40;-2.80;1.00
9768;DHT22;4923;52.520;13.494;2023-03-01T04:35:27;-2.80;1.00
9768;DHT22;4923;52.520;13.494;2023-03-01T04:38:14;-2.80;1.00
9768;DHT22;4923;52.520;13.494;2023-03-01T04:41:01;-2.80;1.00
9768;DHT22;4923;52.520;13.494;2023-03-01T04:43:50;-2.90;1.00
9768;DHT22;4923;52.520;13.494;2023-03-01T04:46:37;-2.90;1.00
9768;DHT22;4923;52.520;13.494;2023-03-01T04:49:24;-2.80;1.00
9768;DHT22;4923;52.520;13.494;2023-03-01T04:52:11;-2.80;1.00
9768;DHT22;4923;52.520;13.494;2023-03-01T04:54:58;-2.90;1.00
9768;DHT22;4923;52.520;13.494;2023-03-01T04:57:45;-3.00;1.00
9768;DHT22;4923;52.520;13.494;2023-03-01T05:00:33;-3.00;1.00
9768;DHT22;4923;52.520;13.494;2023-03-01T05:03:20;-3.00;1.00
9768;DHT22;4923;52.520;13.494;2023-03-01T05:06:07;-3.00;1.00
9768;DHT22;4923;52.520;13.494;2023-03-01T05:08:54;-3.10;1.00
9768;DHT22;4923;52.520;13.494;2023-03-01T05:11:41;-3.10;1.00
9768;DHT22;4923;52.520;13.494;2023-03-01T05:14:28;-3.00;1.00
9768;DHT22;4923;52.520;13.494;2023-03-01T05:17:16;-3.10;1.00
9768;DHT22;4923;52.520;13.494;2023-03-01T05:20:04;-3.20;1.00
9768;DHT22;4923;52.520;13.494;2023-03-01T05:22:56;-3.20;1.00
9768;DHT22;4923;52.520;13.494;2023-03-01T05:25:44;-3.20;1.00
9768;DHT22;4923;52.520;13.494;2023-03-01T05:28:31;-3.20;1.00
9768;DHT22;4923;52.520;13.494;2023-03-01T05:31:18;-3.20;1.00
9768;DHT22;4923;52.520;13.494;2023-03-01T05:34:06;-3.20;1.00
9768;DHT22;4923;52.520;13.494;2023-03-01T05:36:53;-3.10;1.00
9768;DHT22;4923;52.520;13.494;2023-03-01T05:39:40;-3.10;1.00
9768;DHT22;4923;52.520;13.494;2023-03-01T05:42:28;-3.10;1.00
9768;DHT22;4923;52.520;13.494;2023-03-01T05:45:16;-3.20;1.00
9768;DHT22;4923;52.520;13.494;2023-03-01T05:48:04;-3.20;1.00
9768;DHT22;4923;52.520;13.494;2023-03-01T05:50:53;-3.20;1.00
9768;DHT22;4923;52.520;13.494;2023-03-01T05:53:39;-3.10;1.00
9768;DHT22;4923;52.520;13.494;2023-03-01T05:56:27;-3.10;1.00
9768;DHT22;4923;52.520;13.494;2023-03-01T05:59:14;-3.10;1.00
9768;DHT22;4923;52.520;13.494;2023-03-01T06:02:01;-3.10;1.00
9768;DHT22;4923;52.520;13.494;2023-03-01T06:04:48;-3.10;1.00
9768;DHT22;4923;52.520;13.494;2023-03-01T06:07:37;-3.00;1.00
9768;DHT22;4923;52.520;13.494;2023-03-01T06:10:24;-3.00;1.00
9768;DHT22;4923;52.520;13.494;2023-03-01T06:13:10;-3.00;1.00
9768;DHT22;4923;52.520;13.494;2023-03-01T06:15:57;-2.90;1.00
9768;DHT22;4923;52.520;13.494;2023-03-01T06:18:44;-2.90;1.00
9768;DHT22;4923;52.520;13.494;2023-03-01T06:21:31;-2.90;1.00
9768;DHT22;4923;52.520;13.494;2023-03-01T06:24:19;-2.80;1.00
9768;DHT22;4923;52.520;13.494;2023-03-01T06:27:07;-2.70;1.00
9768;DHT22;4923;52.520;13.494;2023-03-01T06:29:54;-2.60;1.00
9768;DHT22;4923;52.520;13.494;2023-03-01T06:32:41;-2.60;1.00
9768;DHT22;4923;52.520;13.494;2023-03-01T06:35:29;-2.60;1.00
9768;DHT22;4923;52.520;13.494;2023-03-01T06:38:16;-2.40;1.00
9768;DHT22;4923;52.520;13.494;2023-03-01T06:41:06;-2.10;1.00
9768;DHT22;4923;52.520;13.494;2023-03-01T06:43:53;-1.70;1.00
9768;DHT22;4923;52.520;13.494;2023-03-01T06:46:40;-1.50;1.00
9768;DHT22;4923;52.520;13.494;2023-03-01T06:49:27;-1.40;1.00
9768;DHT22;4923;52.520;13.494;2023-03-01T06:52:14;-1.10;1.00
9768;DHT22;4923;52.520;13.494;2023-03-01T06:55:01;-1.20;1.00
9768;DHT22;4923;52.520;13.494;2023-03-01T06:57:53;-1.10;1.00
9768;DHT22;4923;52.520;13.494;2023-03-01T07:00:40;-0.90;1.00
9768;DHT22;4923;52.520;13.494;2023-03-01T07:03:28;-0.80;1.00
9768;DHT22;4923;52.520;13.494;2023-03-01T07:06:15;-0.80;1.00
9768;DHT22;4923;52.520;13.494;2023-03-01T07:09:03;-0.50;1.00
9768;DHT22;4923;52.520;13.494;2023-03-01T07:11:50;-0.50;1.00
9768;DHT22;4923;52.520;13.494;2023-03-01T07:14:38;-0.20;1.00
9768;DHT22;4923;52.520;13.494;2023-03-01T07:17:25;0.00;1.00
9768;DHT22;4923;52.520;13.494;2023-03-01T07:20:12;0.20;1.00
9768;DHT22;4923;52.520;13.494;2023-03-01T07:22:59;0.40;1.00
9768;DHT22;4923;52.520;13.494;2023-03-01T07:25:51;0.30;1.00
9768;DHT22;4923;52.520;13.494;2023-03-01T07:28:38;0.40;1.00
9768;DHT22;4923;52.520;13.494;2023-03-01T07:31:26;0.40;1.00
9768;DHT22;4923;52.520;13.494;2023-03-01T07:34:14;0.40;1.00
9768;DHT22;4923;52.520;13.494;2023-03-01T07:37:01;0.60;1.00
9768;DHT22;4923;52.520;13.494;2023-03-01T07:39:47;0.60;1.00
9768;DHT22;4923;52.520;13.494;2023-03-01T07:42:34;0.70;1.00
9768;DHT22;4923;52.520;13.494;2023-03-01T07:45:21;0.80;1.00
9768;DHT22;4923;52.520;13.494;2023-03-01T07:48:10;0.90;1.00
9768;DHT22;4923;52.520;13.494;2023-03-01T07:50:58;1.00;1.00
9768;DHT22;4923;52.520;13.494;2023-03-01T07:53:46;1.10;1.00
9768;DHT22;4923;52.520;13.494;2023-03-01T07:56:33;1.20;1.00
9768;DHT22;4923;52.520;13.494;2023-03-01T07:59:20;1.40;1.00
9768;DHT22;4923;52.520;13.494;2023-03-01T08:02:09;1.50;1.00
9768;DHT22;4923;52.520;13.494;2023-03-01T08:04:58;1.70;1.00
9768;DHT22;4923;52.520;13.494;2023-03-01T08:07:45;2.10;1.00
9768;DHT22;4923;52.520;13.494;2023-03-01T08:10:32;2.40;1.00
9768;DHT22;4923;52.520;13.494;2023-03-01T08:13:19;2.80;1.00
9768;DHT22;4923;52.520;13.494;2023-03-01T08:16:10;3.00;1.00
9768;DHT22;4923;52.520;13.494;2023-03-01T08:18:57;3.00;1.00
9768;DHT22;4923;52.520;13.494;2023-03-01T08:21:48;3.00;1.00
9768;DHT22;4923;52.520;13.494;2023-03-01T08:24:35;3.00;1.00
9768;DHT22;4923;52.520;13.494;2023-03-01T08:27:22;3.00;1.00
9768;DHT22;4923;52.520;13.494;2023-03-01T08:30:10;3.10;1.00
9768;DHT22;4923;52.520;13.494;2023-03-01T08:32:57;3.20;1.00
9768;DHT22;4923;52.520;13.494;2023-03-01T08:35:44;3.30;1.00
9768;DHT22;4923;52.520;13.494;2023-03-01T08:38:32;3.50;1.00
9768;DHT22;4923;52.520;13.494;2023-03-01T08:41:19;3.50;1.00
9768;DHT22;4923;52.520;13.494;2023-03-01T08:44:07;3.60;1.00
9768;DHT22;4923;52.520;13.494;2023-03-01T08:46:54;3.80;1.00
9768;DHT22;4923;52.520;13.494;2023-03-01T08:49:41;3.90;1.00
9768;DHT22;4923;52.520;13.494;2023-03-01T08:52:28;4.10;1.00
9768;DHT22;4923;52.520;13.494;2023-03-01T08:55:17;4.20;1.00
9768;DHT22;4923;52.520;13.494;2023-03-01T08:58:03;4.20;1.00
9768;DHT22;4923;52.520;13.494;2023-03-01T09:00:50;4.30;1.00
9768;DHT22;4923;52.520;13.494;2023-03-01T09:03:37;4.30;1.00
9768;DHT22;4923;52.520;13.494;2023-03-01T09:06:24;4.40;1.00
9768;DHT22;4923;52.520;13.494;2023-03-01T09:09:14;4.50;1.00
9768;DHT22;4923;52.520;13.494;2023-03-01T09:12:03;4.50;1.00
9768;DHT22;4923;52.520;13.494;2023-03-01T09:14:51;4.60;1.00
9768;DHT22;4923;52.520;13.494;2023-03-01T09:17:37;4.80;1.00
9768;DHT22;4923;52.520;13.494;2023-03-01T09:20:24;4.80;1.00
9768;DHT22;4923;52.520;13.494;2023-03-01T09:23:11;4.90;1.00
9768;DHT22;4923;52.520;13.494;2023-03-01T09:25:58;4.80;1.00
9768;DHT22;4923;52.520;13.494;2023-03-01T09:28:47;4.90;1.00
9768;DHT22;4923;52.520;13.494;2023-03-01T09:31:34;5.10;1.00
9768;DHT22;4923;52.520;13.494;2023-03-01T09:34:21;5.20;1.00
9768;DHT22;4923;52.520;13.494;2023-03-01T09:37:09;5.20;1.00
9768;DHT22;4923;52.520;13.494;2023-03-01T09:39:55;5.20;1.00
9768;DHT22;4923;52.520;13.494;2023-03-01T09:42:55;5.20;1.00
9768;DHT22;4923;52.520;13.494;2023-03-01T09:45:45;5.20;1.00
9768;DHT22;4923;52.520;13.494;2023-03-01T09:48:43;5.30;1.00
9768;DHT22;4923;52.520;13.494;2023-03-01T09:51:33;5.60;1.00
9768;DHT22;4923;52.520;13.494;2023-03-01T09:54:20;5.40;1.00
9768;DHT22;4923;52.520;13.494;2023-03-01T09:57:18;5.50;1.00
9768;DHT22;4923;52.520;13.494;2023-03-01T10:00:23;5.50;1.00
9768;DHT22;4923;52.520;13.494;2023-03-01T10:03:17;5.50;1.00
9768;DHT22;4923;52.520;13.494;2023-03-01T10:06:12;5.70;1.00
9768;DHT22;4923;52.520;13.494;2023-03-01T10:09:05;5.90;1.00
9768;DHT22;4923;52.520;13.494;2023-03-01T10:11:54;6.00;1.00
9768;DHT22;4923;52.520;13.494;2023-03-01T10:14:46;5.90;1.00
9768;DHT22;4923;52.520;13.494;2023-03-01T10:17:37;5.80;1.00
9768;DHT22;4923;52.520;13.494;2023-03-01T10:20:33;5.80;1.00
9768;DHT22;4923;52.520;13.494;2023-03-01T10:23:24;5.80;1.00
9768;DHT22;4923;52.520;13.494;2023-03-01T10:26:23;5.70;1.00
9768;DHT22;4923;52.520;13.494;2023-03-01T10:29:13;5.80;1.00
9768;DHT22;4923;52.520;13.494;2023-03-01T10:32:04;5.90;1.00
9768;DHT22;4923;52.520;13.494;2023-03-01T10:34:52;5.80;1.00
9768;DHT22;4923;52.520;13.494;2023-03-01T10:37:56;5.90;1.00
9768;DHT22;4923;52.520;13.494;2023-03-01T10:40:54;6.00;1.00
9768;DHT22;4923;52.520;13.494;2023-03-01T10:43:44;6.10;1.00
9768;DHT22;4923;52.520;13.494;2023-03-01T10:46:34;6.20;1.00
9768;DHT22;4923;52.520;13.494;2023-03-01T10:49:22;6.10;1.00
9768;DHT22;4923;52.520;13.494;2023-03-01T10:52:17;6.00;1.00
9768;DHT22;4923;52.520;13.494;2023-03-01T10:55:25;6.20;1.00
9768;DHT22;4923;52.520;13.494;2023-03-01T10:58:18;6.20;1.00
9768;DHT22;4923;52.520;13.494;2023-03-01T11:01:23;6.30;1.00
9768;DHT22;4923;52.520;13.494;2023-03-01T11:04:13;6.40;1.00
9768;DHT22;4923;52.520;13.494;2023-03-01T11:07:01;6.50;1.00
9768;DHT22;4923;52.520;13.494;2023-03-01T11:09:48;6.50;1.00
9768;DHT22;4923;52.520;13.494;2023-03-01T11:12:36;6.70;1.00
9768;DHT22;4923;52.520;13.494;2023-03-01T11:15:25;6.90;1.00
9768;DHT22;4923;52.520;13.494;2023-03-01T11:18:19;6.80;1.00
9768;DHT22;4923;52.520;13.494;2023-03-01T11:21:07;6.90;1.00
9768;DHT22;4923;52.520;13.494;2023-03-01T11:23:55;7.10;1.00
9768;DHT22;4923;52.520;13.494;2023-03-01T11:26:47;7.20;1.00
9768;DHT22;4923;52.520;13.494;2023-03-01T11:29:38;7.30;1.00
9768;DHT22;4923;52.520;13.494;2023-03-01T11:32:32;7.40;1.00
9768;DHT22;4923;52.520;13.494;2023-03-01T11:35:23;7.40;1.00
9768;DHT22;4923;52.520;13.494;2023-03-01T11:38:17;7.20;1.00
9768;DHT22;4923;52.520;13.494;2023-03-01T11:41:10;7.10;1.00
9768;DHT22;4923;52.520;13.494;2023-03-01T11:44:02;7.10;1.00
9768;DHT22;4923;52.520;13.494;2023-03-01T11:50:15;7.10;1.00
9768;DHT22;4923;52.520;13.494;2023-03-01T11:53:21;7.10;1.00
9768;DHT22;4923;52.520;13.494;2023-03-01T11:56:20;7.20;1.00
9768;DHT22;4923;52.520;13.494;2023-03-01T11:59:36;7.20;1.00
9768;DHT22;4923;52.520;13.494;2023-03-01T12:02:40;7.40;1.00
9768;DHT22;4923;52.520;13.494;2023-03-01T12:05:54;7.40;1.00
9768;DHT22;4923;52.520;13.494;2023-03-01T12:08:57;7.40;1.00
9768;DHT22;4923;52.520;13.494;2023-03-01T12:12:03;7.50;1.00
9768;DHT22;4923;52.520;13.494;2023-03-01T12:15:18;7.40;1.00
9768;DHT22;4923;52.520;13.494;2023-03-01T12:18:34;7.30;1.00
9768;DHT22;4923;52.520;13.494;2023-03-01T12:21:31;7.40;1.00
9768;DHT22;4923;52.520;13.494;2023-03-01T12:24:34;7.40;1.00
9768;DHT22;4923;52.520;13.494;2023-03-01T12:27:41;7.50;1.00
9768;DHT22;4923;52.520;13.494;2023-03-01T12:30:39;7.50;1.00
9768;DHT22;4923;52.520;13.494;2023-03-01T12:33:36;7.60;1.00
9768;DHT22;4923;52.520;13.494;2023-03-01T12:36:44;7.70;1.00
9768;DHT22;4923;52.520;13.494;2023-03-01T12:39:44;7.70;1.00
9768;DHT22;4923;52.520;13.494;2023-03-01T12:42:43;7.60;1.00
9768;DHT22;4923;52.520;13.494;2023-03-01T12:45:50;7.70;1.00
9768;DHT22;4923;52.520;13.494;2023-03-01T12:48:46;7.60;1.00
9768;DHT22;4923;52.520;13.494;2023-03-01T12:51:36;7.50;1.00
9768;DHT22;4923;52.520;13.494;2023-03-01T12:54:27;7.70;1.00
9768;DHT22;4923;52.520;13.494;2023-03-01T12:57:18;7.70;1.00
9768;DHT22;4923;52.520;13.494;2023-03-01T13:00:21;7.80;1.00
9768;DHT22;4923;52.520;13.494;2023-03-01T13:03:19;7.70;1.00
9768;DHT22;4923;52.520;13.494;2023-03-01T13:06:17;7.80;1.00
9768;DHT22;4923;52.520;13.494;2023-03-01T13:09:15;7.90;1.00
9768;DHT22;4923;52.520;13.494;2023-03-01T13:12:04;7.80;1.00
9768;DHT22;4923;52.520;13.494;2023-03-01T13:15:33;7.80;1.00
9768;DHT22;4923;52.520;13.494;2023-03-01T13:18:29;7.80;1.00
9768;DHT22;4923;52.520;13.494;2023-03-01T13:21:29;7.80;1.00
9768;DHT22;4923;52.520;13.494;2023-03-01T13:24:28;7.80;1.00
9768;DHT22;4923;52.520;13.494;2023-03-01T13:27:23;7.90;1.00
9768;DHT22;4923;52.520;13.494;2023-03-01T13:30:41;7.90;1.00
9768;DHT22;4923;52.520;13.494;2023-03-01T13:33:45;8.00;1.00
9768;DHT22;4923;52.520;13.494;2023-03-01T13:36:48;7.90;1.00
9768;DHT22;4923;52.520;13.494;2023-03-01T13:39:40;7.80;1.00
9768;DHT22;4923;52.520;13.494;2023-03-01T13:42:39;7.80;1.00
9768;DHT22;4923;52.520;13.494;2023-03-01T13:45:36;7.90;1.00
9768;DHT22;4923;52.520;13.494;2023-03-01T13:48:27;7.90;1.00
9768;DHT22;4923;52.520;13.494;2023-03-01T13:51:15;7.90;1.00
9768;DHT22;4923;52.520;13.494;2023-03-01T13:54:02;7.90;1.00
9768;DHT22;4923;52.520;13.494;2023-03-01T13:56:49;7.80;1.00
9768;DHT22;4923;52.520;13.494;2023-03-01T13:59:47;7.80;1.00
9768;DHT22;4923;52.520;13.494;2023-03-01T14:02:34;7.80;1.00
9768;DHT22;4923;52.520;13.494;2023-03-01T14:05:23;8.00;1.00
9768;DHT22;4923;52.520;13.494;2023-03-01T14:08:22;8.00;1.00
9768;DHT22;4923;52.520;13.494;2023-03-01T14:11:31;8.00;1.00
9768;DHT22;4923;52.520;13.494;2023-03-01T14:14:45;8.00;1.00
9768;DHT22;4923;52.520;13.494;2023-03-01T14:17:43;8.00;1.00
9768;DHT22;4923;52.520;13.494;2023-03-01T14:20:37;8.00;1.00
9768;DHT22;4923;52.520;13.494;2023-03-01T14:23:25;8.00;1.00
9768;DHT22;4923;52.520;13.494;2023-03-01T14:26:13;8.00;1.00
9768;DHT22;4923;52.520;13.494;2023-03-01T14:29:01;7.90;1.00
9768;DHT22;4923;52.520;13.494;2023-03-01T14:31:48;7.90;1.00
9768;DHT22;4923;52.520;13.494;2023-03-01T14:34:34;8.00;1.00
9768;DHT22;4923;52.520;13.494;2023-03-01T14:37:25;8.00;1.00
9768;DHT22;4923;52.520;13.494;2023-03-01T14:40:24;8.10;1.00
9768;DHT22;4923;52.520;13.494;2023-03-01T14:43:18;8.00;1.00
9768;DHT22;4923;52.520;13.494;2023-03-01T14:46:17;8.00;1.00
9768;DHT22;4923;52.520;13.494;2023-03-01T14:49:06;8.10;1.00
9768;DHT22;4923;52.520;13.494;2023-03-01T14:51:58;8.00;1.00
9768;DHT22;4923;52.520;13.494;2023-03-01T14:54:48;8.00;1.00
9768;DHT22;4923;52.520;13.494;2023-03-01T14:57:36;8.00;1.00
9768;DHT22;4923;52.520;13.494;2023-03-01T15:00:26;8.00;1.00
9768;DHT22;4923;52.520;13.494;2023-03-01T15:03:23;7.90;1.00
9768;DHT22;4923;52.520;13.494;2023-03-01T15:06:14;7.90;1.00
9768;DHT22;4923;52.520;13.494;2023-03-01T15:09:03;7.80;1.00
9768;DHT22;4923;52.520;13.494;2023-03-01T15:11:51;7.90;1.00
9768;DHT22;4923;52.520;13.494;2023-03-01T15:14:41;7.80;1.00
9768;DHT22;4923;52.520;13.494;2023-03-01T15:17:31;7.90;1.00
9768;DHT22;4923;52.520;13.494;2023-03-01T15:20:20;7.80;1.00
9768;DHT22;4923;52.520;13.494;2023-03-01T15:23:17;7.80;1.00
9768;DHT22;4923;52.520;13.494;2023-03-01T15:26:05;7.80;1.00
9768;DHT22;4923;52.520;13.494;2023-03-01T15:28:55;7.80;1.00
9768;DHT22;4923;52.520;13.494;2023-03-01T15:31:54;7.80;1.00
9768;DHT22;4923;52.520;13.494;2023-03-01T15:34:41;7.80;1.00
9768;DHT22;4923;52.520;13.494;2023-03-01T15:37:40;7.70;1.00
9768;DHT22;4923;52.520;13.494;2023-03-01T15:40:30;7.70;1.00
9768;DHT22;4923;52.520;13.494;2023-03-01T15:43:37;7.60;1.00
9768;DHT22;4923;52.520;13.494;2023-03-01T15:46:28;7.60;1.00
9768;DHT22;4923;52.520;13.494;2023-03-01T15:49:27;7.60;1.00
9768;DHT22;4923;52.520;13.494;2023-03-01T15:52:23;7.50;1.00
9768;DHT22;4923;52.520;13.494;2023-03-01T15:55:16;7.50;1.00
9768;DHT22;4923;52.520;13.494;2023-03-01T15:58:05;7.40;1.00
9768;DHT22;4923;52.520;13.494;2023-03-01T16:00:53;7.40;1.00
9768;DHT22;4923;52.520;13.494;2023-03-01T16:03:43;7.40;1.00
9768;DHT22;4923;52.520;13.494;2023-03-01T16:06:30;7.30;1.00
9768;DHT22;4923;52.520;13.494;2023-03-01T16:09:17;7.30;1.00
9768;DHT22;4923;52.520;13.494;2023-03-01T16:12:05;7.20;1.00
9768;DHT22;4923;52.520;13.494;2023-03-01T16:14:52;7.20;1.00
9768;DHT22;4923;52.520;13.494;2023-03-01T16:17:39;7.10;1.00
9768;DHT22;4923;52.520;13.494;2023-03-01T16:20:28;7.00;1.00
9768;DHT22;4923;52.520;13.494;2023-03-01T16:23:16;6.90;1.00
9768;DHT22;4923;52.520;13.494;2023-03-01T16:26:03;6.90;1.00
9768;DHT22;4923;52.520;13.494;2023-03-01T16:28:49;6.80;1.00
9768;DHT22;4923;52.520;13.494;2023-03-01T16:31:36;6.80;1.00
9768;DHT22;4923;52.520;13.494;2023-03-01T16:34:23;6.70;1.00
9768;DHT22;4923;52.520;13.494;2023-03-01T16:37:11;6.60;1.00
9768;DHT22;4923;52.520;13.494;2023-03-01T16:39:58;6.60;1.00
9768;DHT22;4923;52.520;13.494;2023-03-01T16:42:45;6.50;1.00
9768;DHT22;4923;52.520;13.494;2023-03-01T16:45:33;6.40;1.00
9768;DHT22;4923;52.520;13.494;2023-03-01T16:48:20;6.40;1.00
9768;DHT22;4923;52.520;13.494;2023-03-01T16:51:08;6.20;1.00
9768;DHT22;4923;52.520;13.494;2023-03-01T16:53:56;6.10;1.00
9768;DHT22;4923;52.520;13.494;2023-03-01T16:56:43;6.10;1.00
9768;DHT22;4923;52.520;13.494;2023-03-01T16:59:30;6.00;1.00
9768;DHT22;4923;52.520;13.494;2023-03-01T17:02:16;5.90;1.00
9768;DHT22;4923;52.520;13.494;2023-03-01T17:05:06;5.80;1.00
9768;DHT22;4923;52.520;13.494;2023-03-01T17:07:53;5.70;1.00
9768;DHT22;4923;52.520;13.494;2023-03-01T17:10:42;5.60;1.00
9768;DHT22;4923;52.520;13.494;2023-03-01T17:13:29;5.50;1.00
9768;DHT22;4923;52.520;13.494;2023-03-01T17:16:18;5.50;1.00
9768;DHT22;4923;52.520;13.494;2023-03-01T17:19:05;5.40;1.00
9768;DHT22;4923;52.520;13.494;2023-03-01T17:21:52;5.40;1.00
9768;DHT22;4923;52.520;13.494;2023-03-01T17:24:40;5.40;1.00
9768;DHT22;4923;52.520;13.494;2023-03-01T17:27:28;5.30;1.00
9768;DHT22;4923;52.520;13.494;2023-03-01T17:30:20;5.40;1.00
9768;DHT22;4923;52.520;13.494;2023-03-01T17:33:07;5.40;1.00
9768;DHT22;4923;52.520;13.494;2023-03-01T17:35:53;5.40;1.00
9768;DHT22;4923;52.520;13.494;2023-03-01T17:38:40;5.40;1.00
9768;DHT22;4923;52.520;13.494;2023-03-01T17:41:27;5.40;1.00
9768;DHT22;4923;52.520;13.494;2023-03-01T17:44:16;5.50;1.00
9768;DHT22;4923;52.520;13.494;2023-03-01T17:47:04;5.40;1.00
9768;DHT22;4923;52.520;13.494;2023-03-01T17:49:51;5.30;1.00
9768;DHT22;4923;52.520;13.494;2023-03-01T17:52:38;5.20;1.00
9768;DHT22;4923;52.520;13.494;2023-03-01T17:55:25;5.20;1.00
9768;DHT22;4923;52.520;13.494;2023-03-01T17:58:13;5.10;1.00
9768;DHT22;4923;52.520;13.494;2023-03-01T18:01:12;5.10;1.00
9768;DHT22;4923;52.520;13.494;2023-03-01T18:03:59;5.00;1.00
9768;DHT22;4923;52.520;13.494;2023-03-01T18:06:46;4.90;1.00
9768;DHT22;4923;52.520;13.494;2023-03-01T18:09:33;5.00;1.00
9768;DHT22;4923;52.520;13.494;2023-03-01T18:12:20;5.10;1.00
9768;DHT22;4923;52.520;13.494;2023-03-01T18:15:08;5.10;1.00
9768;DHT22;4923;52.520;13.494;2023-03-01T18:17:56;5.20;1.00
9768;DHT22;4923;52.520;13.494;2023-03-01T18:20:43;5.20;1.00
9768;DHT22;4923;52.520;13.494;2023-03-01T18:23:31;5.40;1.00
9768;DHT22;4923;52.520;13.494;2023-03-01T18:26:18;5.40;1.00
9768;DHT22;4923;52.520;13.494;2023-03-01T18:29:06;5.20;1.00
9768;DHT22;4923;52.520;13.494;2023-03-01T18:31:55;5.20;1.00
9768;DHT22;4923;52.520;13.494;2023-03-01T18:34:43;5.40;1.00
9768;DHT22;4923;52.520;13.494;2023-03-01T18:37:30;5.40;1.00
9768;DHT22;4923;52.520;13.494;2023-03-01T18:40:17;5.40;1.00
9768;DHT22;4923;52.520;13.494;2023-03-01T18:43:04;5.30;1.00
9768;DHT22;4923;52.520;13.494;2023-03-01T18:45:55;5.10;1.00